Date,TemperatureHighF,TemperatureAvgF,TemperatureLowF,DewpointHighF,DewpointAvgF,DewpointLowF,HumidityHigh,HumidityAvg,HumidityLow,PressureMaxIn,PressureMinIn,WindSpeedMaxMPH,WindSpeedAvgMPH,GustSpeedMaxMPH,PrecipitationSumIn
2013-6-1,67,51,27,35,25,14,79,43,14,0.00,40.00,16,6,19,0.00
2013-6-2,80,61,34,35,25,15,81,36,8,0.00,40.00,19,5,29,0.00
2013-6-3,66,58,43,31,19,9,48,23,11,0.00,40.00,22,12,26,0.00
2013-6-4,68,53,31,33,25,20,74,38,17,0.00,40.00,20,8,26,0.00
2013-6-5,70,55,35,36,30,23,81,44,17,0.00,40.00,20,6,25,0.00
2013-6-6,74,57,35,36,31,22,76,42,14,0.00,40.00,19,6,24,0.00
2013-6-7,76,60,38,40,34,28,78,43,17,0.00,40.00,19,6,26,0.00
2013-6-8,75,62,44,43,33,21,74,39,15,0.00,40.00,22,8,27,0.00
2013-6-9,84,63,38,42,34,27,75,40,14,0.00,40.00,17,5,24,0.00
2013-6-10,85,72,51,43,28,12,64,27,6,0.00,40.00,17,5,28,0.00
2013-6-11,77,66,53,34,22,10,48,20,10,0.00,40.00,17,7,28,0.00
2013-6-12,79,66,41,38,30,19,70,29,10,0.00,40.00,15,5,25,0.00
2013-6-13,81,72,52,37,27,13,50,20,7,0.00,40.00,23,10,34,0.00
2013-6-14,65,54,35,35,31,26,80,43,24,0.00,40.00,19,10,22,0.00
2013-6-15,77,54,32,36,29,13,78,45,8,0.00,40.00,14,4,22,0.00
2013-6-16,81,60,35,33,23,8,72,34,6,0.00,40.00,16,4,26,0.00
2013-6-17,82,63,36,30,23,9,66,29,6,0.00,40.00,14,4,19,0.00
2013-6-18,82,65,37,33,21,11,66,25,6,0.00,40.00,19,6,28,0.00
2013-6-19,73,62,46,33,21,13,36,21,11,0.00,40.00,26,10,32,0.00
2013-6-20,65,45,30,31,24,17,71,46,18,0.00,40.00,21,5,25,0.00
2013-6-21,68,68,67,32,31,30,26,25,24,0.00,40.00,18,18,23,0.00
2013-6-22,65,59,39,33,29,25,72,32,24,0.00,40.00,24,14,30,0.00
2013-6-23,77,56,33,36,28,19,75,42,11,0.00,40.00,17,4,21,0.00
2013-6-24,76,62,46,44,30,22,70,34,14,0.00,40.00,17,7,27,0.00
2013-6-25,77,59,43,44,40,35,82,53,21,0.00,40.00,9,3,16,0.00
2013-6-26,83,67,46,47,41,38,73,43,22,0.00,40.00,15,5,21,0.00
2013-6-27,89,70,46,47,42,35,79,42,14,0.00,40.00,14,5,18,0.00
2013-6-28,91,75,50,46,39,29,75,33,11,0.00,40.00,14,4,20,0.00
2013-6-29,90,75,50,46,39,31,68,31,12,0.00,40.00,15,3,21,0.00
2013-6-30,89,74,58,46,38,26,58,30,10,0.00,40.00,14,5,18,0.00